Time;durP1;ratioP1;P1;durP2;ratioP2;P2;SDS_P1;SDS_P2;PMS_P1;PMS_P2;Temp;Humidity;BMP_temperature;BMP_pressure;BME280_temperature;BME280_humidity;BME280_pressure;Samples;Min_cycle;Max_cycle;Signal;HPM_P1;HPM_P2
2023/07/01 00:01:02;;;;;;;1.13;0.60;;;18.40;99.90;;;;;;4982561;28;20592;-74
2023/07/01 00:03:30;;;;;;;0.50;0.50;;;18.40;99.90;;;;;;4982264;28;20382;-73
2023/07/01 00:05:58;;;;;;;0.47;0.40;;;18.40;99.90;;;;;;4981888;28;20568;-74
2023/07/01 00:08:25;;;;;;;0.77;0.60;;;18.40;99.90;;;;;;5000365;28;20497;-73
2023/07/01 00:10:53;;;;;;;0.50;0.50;;;18.40;99.90;;;;;;4982934;28;20629;-74
2023/07/01 00:13:20;;;;;;;0.85;0.50;;;18.40;99.90;;;;;;4965992;28;20210;-74
2023/07/01 00:15:47;;;;;;;0.55;0.40;;;18.40;99.90;;;;;;4982393;28;20485;-74
2023/07/01 00:18:13;;;;;;;0.50;0.50;;;18.40;99.90;;;;;;4967209;28;20053;-74
2023/07/01 00:20:40;;;;;;;0.68;0.60;;;18.40;99.90;;;;;;4966330;28;20054;-74
2023/07/01 00:23:07;;;;;;;0.60;0.50;;;18.40;99.90;;;;;;4983345;28;20445;-74
2023/07/01 00:25:34;;;;;;;0.40;0.40;;;18.40;99.90;;;;;;4981812;28;20073;-74
2023/07/01 00:28:00;;;;;;;0.55;0.50;;;18.40;99.90;;;;;;4999059;28;20087;-74
2023/07/01 00:30:27;;;;;;;0.43;0.30;;;18.40;99.90;;;;;;5002103;28;20108;-73
2023/07/01 00:32:54;;;;;;;0.90;0.50;;;18.40;99.90;;;;;;4986213;28;20116;-74
2023/07/01 00:35:21;;;;;;;0.47;0.47;;;18.40;99.90;;;;;;5002841;28;20050;-74
2023/07/01 00:37:48;;;;;;;0.47;0.40;;;18.40;99.90;;;;;;5004026;28;20061;-75
2023/07/01 00:40:14;;;;;;;0.90;0.40;;;18.40;99.90;;;;;;4986033;28;20108;-74
2023/07/01 00:42:42;;;;;;;0.65;0.50;;;18.40;99.90;;;;;;4985203;28;20548;-74
2023/07/01 00:45:09;;;;;;;0.60;0.43;;;18.40;99.90;;;;;;5003272;28;20058;-74
2023/07/01 00:47:38;;;;;;;0.50;0.50;;;18.40;99.90;;;;;;4970326;28;20053;-74
2023/07/01 00:50:10;;;;;;;0.22;0.22;;;18.40;99.90;;;;;;4985411;28;20115;-74
2023/07/01 00:52:38;;;;;;;0.63;0.60;;;18.30;99.90;;;;;;5003358;28;20049;-75
2023/07/01 00:55:06;;;;;;;0.63;0.50;;;18.40;99.90;;;;;;4969153;28;20050;-74
2023/07/01 00:57:33;;;;;;;0.63;0.43;;;18.30;99.90;;;;;;4985716;28;20113;-74
2023/07/01 01:00:10;;;;;;;0.40;0.40;;;18.30;99.90;;;;;;4953242;28;20062;-74
2023/07/01 01:03:21;;;;;;;0.40;0.40;;;18.30;99.90;;;;;;4969892;28;20524;-74
2023/07/01 01:06:05;;;;;;;0.35;0.35;;;18.30;99.90;;;;;;5002770;28;20460;-74
2023/07/01 01:08:51;;;;;;;0.40;0.40;;;18.30;99.90;;;;;;4985963;28;20075;-74
2023/07/01 01:11:19;;;;;;;0.35;0.32;;;18.30;99.90;;;;;;5002158;28;20637;-74
2023/07/01 01:13:46;;;;;;;0.45;0.40;;;18.30;99.90;;;;;;4984524;28;20480;-74
2023/07/01 01:16:12;;;;;;;0.30;0.30;;;18.30;99.90;;;;;;4953234;28;20061;-74
2023/07/01 01:18:41;;;;;;;0.40;0.35;;;18.30;99.90;;;;;;4969586;28;20549;-73
2023/07/01 01:21:08;;;;;;;0.98;0.63;;;18.30;99.90;;;;;;4952876;28;20053;-74
2023/07/01 01:23:38;;;;;;;0.70;0.57;;;18.40;99.90;;;;;;4969397;28;20089;-74
2023/07/01 01:26:22;;;;;;;0.40;0.40;;;18.30;99.90;;;;;;4952979;28;20151;-74
2023/07/01 01:28:50;;;;;;;0.73;0.50;;;18.30;99.90;;;;;;4953625;28;20050;-74
2023/07/01 01:31:19;;;;;;;0.43;0.43;;;18.40;99.90;;;;;;4968817;28;20045;-74
2023/07/01 01:33:48;;;;;;;0.40;0.38;;;18.40;99.90;;;;;;4991902;28;20078;-75
2023/07/01 01:36:35;;;;;;;0.30;0.25;;;18.40;99.90;;;;;;4968779;28;20482;-74
2023/07/01 01:39:05;;;;;;;0.30;0.30;;;18.40;99.90;;;;;;4958685;28;20050;-75
2023/07/01 01:41:59;;;;;;;0.43;0.30;;;18.40;99.90;;;;;;4955209;28;20100;-74
2023/07/01 01:44:47;;;;;;;0.60;0.60;;;18.40;99.90;;;;;;4980432;28;20046;-75
2023/07/01 01:47:16;;;;;;;0.50;0.40;;;18.40;99.90;;;;;;4956808;28;20400;-74
2023/07/01 01:49:43;;;;;;;0.52;0.30;;;18.40;99.90;;;;;;4971945;28;20593;-74
2023/07/01 01:52:13;;;;;;;0.35;0.30;;;18.40;99.90;;;;;;4956544;28;20100;-75
2023/07/01 01:54:39;;;;;;;0.52;0.30;;;18.40;99.90;;;;;;4972317;28;20053;-74
2023/07/01 01:57:06;;;;;;;0.75;0.47;;;18.40;99.90;;;;;;4987908;28;20049;-74
2023/07/01 01:59:34;;;;;;;0.73;0.32;;;18.40;99.90;;;;;;5006032;28;20048;-73
2023/07/01 02:02:01;;;;;;;0.45;0.35;;;18.40;99.90;;;;;;4972311;28;20115;-74
2023/07/01 02:04:28;;;;;;;0.43;0.30;;;18.40;99.90;;;;;;4988415;28;20058;-74
2023/07/01 02:06:55;;;;;;;0.10;0.10;;;18.40;99.90;;;;;;4987709;28;20183;-74
2023/07/01 02:09:22;;;;;;;0.75;0.40;;;18.40;99.90;;;;;;4988614;28;20153;-74
2023/07/01 02:11:49;;;;;;;0.30;0.30;;;18.40;99.90;;;;;;5004724;28;20069;-74
2023/07/01 02:14:15;;;;;;;0.28;0.25;;;18.40;99.90;;;;;;4987386;28;20445;-74
2023/07/01 02:16:42;;;;;;;0.20;0.20;;;18.50;99.90;;;;;;4955158;28;20069;-74
2023/07/01 02:19:10;;;;;;;0.10;0.10;;;18.50;99.90;;;;;;4987864;28;20057;-74
2023/07/01 02:21:37;;;;;;;0.20;0.20;;;18.50;99.90;;;;;;4987522;28;20045;-73
2023/07/01 02:24:04;;;;;;;0.43;0.30;;;18.50;99.90;;;;;;5005631;28;20100;-75
2023/07/01 02:26:31;;;;;;;0.30;0.20;;;18.50;99.90;;;;;;4986795;28;20054;-74
2023/07/01 02:28:58;;;;;;;0.40;0.35;;;18.50;99.90;;;;;;4987123;28;20153;-74
2023/07/01 02:31:24;;;;;;;0.40;0.30;;;18.50;99.90;;;;;;4955356;28;20049;-73
2023/07/01 02:33:53;;;;;;;0.20;0.20;;;18.50;99.90;;;;;;4956323;28;20058;-74
2023/07/01 02:36:20;;;;;;;0.55;0.22;;;18.50;99.90;;;;;;4971686;28;20045;-73
2023/07/01 02:38:46;;;;;;;0.40;0.30;;;18.40;99.90;;;;;;4971345;28;20532;-74
2023/07/01 02:41:13;;;;;;;0.20;0.20;;;18.40;99.90;;;;;;5004501;28;20050;-73
2023/07/01 02:43:40;;;;;;;0.20;0.20;;;18.40;99.90;;;;;;4986651;28;20369;-74
2023/07/01 02:46:07;;;;;;;0.17;0.17;;;18.40;99.90;;;;;;5004158;28;20046;-74
2023/07/01 02:48:34;;;;;;;0.30;0.30;;;18.40;99.90;;;;;;4970349;28;20497;-75
2023/07/01 02:51:00;;;;;;;0.47;0.30;;;18.40;99.90;;;;;;4969254;28;20054;-74
2023/07/01 02:53:27;;;;;;;0.52;0.30;;;18.40;99.90;;;;;;4994567;28;20596;-74
2023/07/01 02:55:54;;;;;;;0.22;0.22;;;18.40;99.90;;;;;;4972304;28;20489;-74
2023/07/01 02:58:22;;;;;;;0.15;0.15;;;18.30;99.90;;;;;;4985649;28;20580;-74
2023/07/01 03:00:49;;;;;;;0.20;0.13;;;18.40;99.90;;;;;;4987132;28;20676;-74
2023/07/01 03:03:17;;;;;;;0.70;0.30;;;18.40;99.90;;;;;;4977644;28;20085;-74
2023/07/01 03:05:44;;;;;;;0.20;0.20;;;18.40;99.90;;;;;;4988398;28;20124;-74
2023/07/01 03:08:11;;;;;;;0.20;0.20;;;18.30;99.90;;;;;;4988657;28;20062;-74
2023/07/01 03:10:37;;;;;;;0.57;0.57;;;18.30;99.90;;;;;;4988256;28;20133;-74
2023/07/01 03:13:04;;;;;;;0.32;0.30;;;18.30;99.90;;;;;;4998322;28;20387;-74
2023/07/01 03:15:31;;;;;;;0.22;0.22;;;18.40;99.90;;;;;;4988432;28;20409;-74
2023/07/01 03:17:58;;;;;;;0.30;0.17;;;18.40;99.90;;;;;;5006551;28;20061;-74
2023/07/01 03:20:24;;;;;;;1.48;0.30;;;18.40;99.90;;;;;;5005904;28;20045;-74
2023/07/01 03:22:56;;;;;;;0.52;0.40;;;18.40;99.90;;;;;;4988883;28;20809;-74
2023/07/01 03:25:23;;;;;;;0.52;0.30;;;18.40;99.90;;;;;;4988907;28;20460;-74
2023/07/01 03:27:50;;;;;;;0.20;0.20;;;18.40;99.90;;;;;;4971925;28;20054;-74
2023/07/01 03:30:18;;;;;;;0.25;0.22;;;18.40;99.90;;;;;;5006092;28;20401;-74
2023/07/01 03:32:46;;;;;;;0.30;0.30;;;18.30;99.90;;;;;;4995255;28;20046;-74
2023/07/01 03:35:14;;;;;;;0.20;0.20;;;18.10;99.90;;;;;;4988462;28;20049;-74
2023/07/01 03:37:42;;;;;;;0.57;0.28;;;18.00;99.90;;;;;;5000373;28;20452;-74
2023/07/01 03:40:11;;;;;;;0.35;0.30;;;17.80;99.90;;;;;;4980264;28;20088;-74
2023/07/01 03:42:41;;;;;;;0.25;0.25;;;17.70;99.90;;;;;;5004579;28;20042;-75
2023/07/01 03:45:12;;;;;;;0.30;0.30;;;17.60;99.90;;;;;;4956523;28;20046;-74
2023/07/01 03:47:42;;;;;;;0.30;0.22;;;17.50;99.90;;;;;;4971965;28;20108;-74
2023/07/01 03:50:09;;;;;;;0.20;0.20;;;17.40;99.90;;;;;;4991202;28;20046;-74
2023/07/01 03:52:37;;;;;;;0.22;0.22;;;17.40;99.90;;;;;;5004233;28;20066;-74
2023/07/01 03:55:07;;;;;;;0.10;0.10;;;17.30;99.90;;;;;;4975385;28;20042;-73
2023/07/01 03:57:34;;;;;;;0.20;0.20;;;17.30;99.90;;;;;;4984812;28;20045;-73
2023/07/01 04:00:08;;;;;;;0.73;0.40;;;17.30;99.90;;;;;;4981679;28;20061;-73
2023/07/01 04:02:38;;;;;;;0.30;0.30;;;17.20;99.90;;;;;;5003115;28;20065;-73
2023/07/01 04:05:10;;;;;;;0.30;0.20;;;17.20;99.90;;;;;;5005646;28;20045;-73
2023/07/01 04:07:39;;;;;;;0.75;0.30;;;17.10;99.90;;;;;;4991395;28;20073;-73
2023/07/01 04:10:06;;;;;;;0.47;0.20;;;17.10;99.90;;;;;;4989019;28;20050;-73
2023/07/01 04:12:33;;;;;;;0.47;0.40;;;17.10;99.90;;;;;;5006765;28;20053;-74
2023/07/01 04:15:00;;;;;;;0.30;0.30;;;17.10;99.90;;;;;;4978655;28;20050;-74
2023/07/01 04:17:28;;;;;;;0.30;0.30;;;17.10;99.90;;;;;;4975858;28;20131;-75
2023/07/01 04:19:55;;;;;;;0.40;0.40;;;17.10;99.90;;;;;;4971945;28;20057;-73
2023/07/01 04:22:26;;;;;;;0.20;0.20;;;17.00;99.90;;;;;;4972987;28;20047;-73
2023/07/01 04:24:53;;;;;;;1.00;0.40;;;17.00;99.90;;;;;;5006712;28;20698;-75
2023/07/01 04:27:19;;;;;;;0.28;0.20;;;17.10;99.90;;;;;;5006875;28;20077;-73
2023/07/01 04:29:46;;;;;;;0.20;0.20;;;17.10;99.90;;;;;;5006745;28;20100;-73
2023/07/01 04:32:13;;;;;;;0.20;0.20;;;17.00;99.90;;;;;;4989553;28;20141;-73
2023/07/01 04:34:40;;;;;;;0.15;0.15;;;17.00;99.90;;;;;;5006915;28;20049;-73
2023/07/01 04:37:06;;;;;;;0.30;0.30;;;17.00;99.90;;;;;;4989292;28;20474;-73
2023/07/01 04:39:33;;;;;;;0.20;0.20;;;17.00;99.90;;;;;;5007071;28;20473;-73
2023/07/01 04:42:00;;;;;;;0.28;0.28;;;17.00;99.90;;;;;;4988892;28;20463;-74
2023/07/01 04:44:27;;;;;;;0.55;0.30;;;17.10;99.90;;;;;;5006507;28;20068;-74
2023/07/01 04:46:53;;;;;;;0.30;0.30;;;17.10;99.90;;;;;;5005616;28;20441;-73
2023/07/01 04:49:20;;;;;;;0.63;0.45;;;17.00;99.90;;;;;;4991635;28;20077;-73
2023/07/01 04:51:47;;;;;;;1.33;0.57;;;17.00;99.90;;;;;;5004498;28;20042;-73
2023/07/01 04:54:14;;;;;;;0.70;0.43;;;17.00;99.90;;;;;;4985811;28;20050;-73
2023/07/01 04:56:41;;;;;;;0.68;0.40;;;17.10;99.90;;;;;;4979742;28;20795;-73
2023/07/01 04:59:07;;;;;;;1.13;0.40;;;17.00;99.90;;;;;;4975885;28;20049;-73
2023/07/01 05:01:34;;;;;;;0.40;0.40;;;17.10;99.90;;;;;;5001608;28;20069;-73
2023/07/01 05:04:01;;;;;;;0.30;0.30;;;17.10;99.90;;;;;;4991645;28;20068;-73
2023/07/01 05:06:28;;;;;;;0.30;0.30;;;17.10;99.90;;;;;;4985339;28;20431;-73
2023/07/01 05:08:55;;;;;;;0.30;0.30;;;17.10;99.90;;;;;;4979188;28;20100;-74
2023/07/01 05:11:22;;;;;;;1.15;0.55;;;17.10;99.90;;;;;;4984576;28;20129;-75
2023/07/01 05:13:48;;;;;;;1.10;0.55;;;17.10;99.90;;;;;;4971966;28;20096;-74
2023/07/01 05:16:15;;;;;;;1.27;0.50;;;17.10;99.90;;;;;;4970282;28;20053;-75
2023/07/01 05:18:42;;;;;;;1.33;0.73;;;17.10;99.90;;;;;;4978411;28;20069;-74
2023/07/01 05:21:09;;;;;;;0.93;0.63;;;17.10;99.90;;;;;;4950468;28;20937;-75
2023/07/01 05:23:36;;;;;;;1.98;0.77;;;17.10;99.90;;;;;;4974745;28;20096;-74
2023/07/01 05:26:02;;;;;;;1.52;0.80;;;17.10;99.90;;;;;;5002084;28;20054;-75
2023/07/01 05:28:29;;;;;;;0.63;0.60;;;17.10;99.90;;;;;;5001280;28;20058;-74
2023/07/01 05:30:56;;;;;;;1.15;0.65;;;17.20;99.90;;;;;;4984500;28;20050;-74
2023/07/01 05:33:23;;;;;;;0.93;0.60;;;17.20;99.90;;;;;;4984851;28;20060;-76
2023/07/01 05:35:49;;;;;;;0.68;0.52;;;17.20;99.90;;;;;;4968462;28;20358;-73
2023/07/01 05:38:16;;;;;;;0.98;0.60;;;17.30;99.90;;;;;;5002578;28;20138;-73
2023/07/01 05:40:43;;;;;;;0.75;0.52;;;17.30;99.90;;;;;;4982671;28;20065;-75
2023/07/01 05:43:10;;;;;;;0.82;0.60;;;17.30;99.90;;;;;;4987067;28;20573;-76
2023/07/01 05:45:37;;;;;;;1.42;0.63;;;17.30;99.90;;;;;;4984715;28;20045;-76
2023/07/01 05:48:04;;;;;;;1.73;0.77;;;17.30;99.90;;;;;;4999870;28;20050;-75
2023/07/01 05:50:31;;;;;;;1.90;0.90;;;17.40;99.90;;;;;;4980761;28;20080;-75
2023/07/01 05:52:58;;;;;;;1.00;0.80;;;17.40;99.90;;;;;;4985084;28;20091;-75
2023/07/01 05:55:25;;;;;;;1.58;1.10;;;17.40;99.90;;;;;;4983628;28;20049;-75
2023/07/01 05:57:51;;;;;;;2.13;1.20;;;17.40;99.90;;;;;;4983640;28;20110;-75
2023/07/01 06:00:18;;;;;;;1.80;0.93;;;17.40;99.90;;;;;;5000802;28;20487;-75
2023/07/01 06:02:45;;;;;;;1.35;0.93;;;17.40;99.90;;;;;;4984123;28;20589;-74
2023/07/01 06:05:12;;;;;;;1.58;1.30;;;17.30;99.90;;;;;;4993131;28;20868;-74
2023/07/01 06:07:39;;;;;;;1.38;1.10;;;17.20;99.90;;;;;;4983818;28;20673;-74
2023/07/01 06:10:06;;;;;;;1.50;1.00;;;17.10;99.90;;;;;;4988522;28;20136;-74
2023/07/01 06:12:33;;;;;;;1.63;0.90;;;17.10;99.90;;;;;;4989404;28;20143;-72
2023/07/01 06:14:59;;;;;;;1.25;1.00;;;17.00;99.90;;;;;;5000102;28;20192;-74
2023/07/01 06:17:26;;;;;;;0.80;0.80;;;17.00;99.90;;;;;;4983670;28;20052;-75
2023/07/01 06:19:53;;;;;;;1.17;0.80;;;17.00;99.90;;;;;;4999176;28;20054;-74
2023/07/01 06:22:20;;;;;;;1.58;1.00;;;16.90;99.90;;;;;;4999843;28;20050;-77
2023/07/01 06:24:47;;;;;;;1.30;0.85;;;17.00;99.90;;;;;;4999501;28;20104;-74
2023/07/01 06:27:13;;;;;;;1.33;0.80;;;16.90;99.90;;;;;;4982925;28;20112;-75
2023/07/01 06:29:40;;;;;;;1.45;1.00;;;16.80;99.90;;;;;;4981142;28;20049;-74
2023/07/01 06:32:07;;;;;;;1.27;0.93;;;16.70;99.90;;;;;;4951000;28;20677;-74
2023/07/01 06:34:34;;;;;;;0.88;0.70;;;16.60;99.90;;;;;;4968971;28;20046;-74
2023/07/01 06:37:01;;;;;;;1.27;0.90;;;16.60;99.90;;;;;;4968134;28;20042;-74
2023/07/01 06:39:28;;;;;;;0.40;0.40;;;16.60;99.90;;;;;;4997891;28;20050;-74
2023/07/01 06:41:54;;;;;;;1.08;0.50;;;16.60;99.90;;;;;;4991519;28;20042;-75
2023/07/01 06:44:21;;;;;;;0.63;0.40;;;16.60;99.90;;;;;;4983899;28;20081;-75
2023/07/01 06:46:48;;;;;;;0.45;0.45;;;16.60;99.90;;;;;;5000782;28;20052;-75
2023/07/01 06:49:15;;;;;;;0.47;0.40;;;16.50;99.90;;;;;;4984787;28;20069;-75
2023/07/01 06:51:42;;;;;;;0.52;0.40;;;16.50;99.90;;;;;;4980980;28;20049;-75
2023/07/01 06:54:10;;;;;;;1.23;0.68;;;16.50;99.90;;;;;;4990322;28;20093;-75
2023/07/01 06:56:37;;;;;;;0.20;0.20;;;16.60;99.90;;;;;;4999675;28;20042;-75
2023/07/01 06:59:04;;;;;;;0.30;0.25;;;16.70;99.90;;;;;;5001234;28;20946;-74
2023/07/01 07:01:31;;;;;;;0.68;0.30;;;16.80;99.90;;;;;;4984017;28;20042;-74
2023/07/01 07:03:58;;;;;;;0.20;0.20;;;16.90;99.90;;;;;;4982628;28;20115;-75
2023/07/01 07:06:25;;;;;;;0.93;0.40;;;17.00;99.90;;;;;;4981002;28;20046;-75
2023/07/01 07:08:51;;;;;;;0.65;0.40;;;17.10;99.90;;;;;;5000925;28;20416;-75
2023/07/01 07:11:18;;;;;;;0.95;0.40;;;17.20;99.90;;;;;;4987637;28;20069;-75
2023/07/01 07:13:45;;;;;;;0.22;0.22;;;17.20;99.90;;;;;;4998639;28;20054;-75
2023/07/01 07:16:11;;;;;;;0.60;0.30;;;17.20;99.90;;;;;;5000698;28;20049;-75
2023/07/01 07:18:38;;;;;;;0.28;0.28;;;17.30;99.90;;;;;;5000310;28;20042;-73
2023/07/01 07:21:05;;;;;;;0.73;0.45;;;17.30;99.90;;;;;;4998556;28;20049;-74
2023/07/01 07:23:32;;;;;;;0.57;0.50;;;17.40;99.90;;;;;;5000455;28;20900;-73
2023/07/01 07:25:59;;;;;;;0.57;0.40;;;17.40;99.90;;;;;;4999845;28;20495;-74
2023/07/01 07:28:26;;;;;;;1.23;0.60;;;17.40;99.90;;;;;;4981878;28;20057;-73
2023/07/01 07:30:52;;;;;;;0.88;0.40;;;17.40;99.90;;;;;;4976084;28;20051;-74
2023/07/01 07:33:19;;;;;;;0.40;0.32;;;17.40;99.90;;;;;;4998780;28;20050;-74
2023/07/01 07:35:46;;;;;;;0.45;0.40;;;17.40;99.90;;;;;;4998656;28;20531;-75
2023/07/01 07:38:13;;;;;;;0.70;0.40;;;17.60;99.90;;;;;;4944856;28;20041;-74
2023/07/01 07:40:40;;;;;;;0.73;0.40;;;17.50;99.90;;;;;;4980077;28;20052;-74
2023/07/01 07:43:10;;;;;;;0.38;0.30;;;17.60;99.90;;;;;;4976516;28;20045;-74
2023/07/01 07:45:37;;;;;;;0.45;0.30;;;17.60;99.90;;;;;;4999085;28;20640;-74
2023/07/01 07:48:05;;;;;;;0.35;0.35;;;17.70;99.90;;;;;;4972764;28;20045;-74
2023/07/01 07:50:33;;;;;;;0.47;0.35;;;17.80;99.90;;;;;;4961610;28;20046;-74
2023/07/01 07:53:01;;;;;;;0.52;0.40;;;17.80;99.90;;;;;;4963603;28;20386;-76
2023/07/01 07:55:33;;;;;;;0.95;0.55;;;17.70;99.90;;;;;;4997090;28;20431;-76
2023/07/01 07:58:00;;;;;;;0.40;0.40;;;17.70;99.90;;;;;;4981252;28;20056;-73
2023/07/01 08:00:27;;;;;;;0.40;0.40;;;17.80;99.90;;;;;;4981052;28;20619;-75
2023/07/01 08:02:54;;;;;;;0.50;0.30;;;17.90;99.90;;;;;;4947033;28;20417;-74
2023/07/01 08:05:23;;;;;;;0.30;0.30;;;17.90;99.90;;;;;;4996100;28;20046;-73
2023/07/01 08:07:50;;;;;;;0.35;0.30;;;18.00;99.90;;;;;;4959022;28;20054;-74
2023/07/01 08:10:17;;;;;;;0.40;0.40;;;18.10;99.90;;;;;;4977963;28;20053;-74
2023/07/01 08:12:44;;;;;;;0.30;0.30;;;18.30;99.90;;;;;;4963813;28;20113;-74
2023/07/01 08:15:11;;;;;;;0.30;0.30;;;18.30;99.90;;;;;;4994777;28;20433;-76
2023/07/01 08:17:38;;;;;;;0.90;0.50;;;18.40;99.90;;;;;;4978571;28;20485;-75
2023/07/01 08:20:06;;;;;;;0.52;0.30;;;18.50;99.90;;;;;;4959432;28;20060;-75
2023/07/01 08:22:33;;;;;;;0.30;0.30;;;18.60;99.90;;;;;;4963619;28;20077;-75
2023/07/01 08:25:00;;;;;;;0.30;0.20;;;18.60;99.90;;;;;;4980589;28;20127;-76
2023/07/01 08:27:27;;;;;;;0.20;0.20;;;18.70;99.90;;;;;;4982456;28;20038;-77
2023/07/01 08:29:54;;;;;;;0.30;0.30;;;18.90;99.90;;;;;;4964902;28;20101;-75
2023/07/01 08:32:20;;;;;;;0.30;0.30;;;19.00;99.90;;;;;;4978831;28;20046;-73
2023/07/01 08:34:47;;;;;;;0.40;0.32;;;19.10;99.90;;;;;;4980799;28;20072;-73
2023/07/01 08:37:14;;;;;;;0.22;0.22;;;19.30;99.90;;;;;;5000857;28;20133;-73
2023/07/01 08:39:40;;;;;;;0.20;0.20;;;19.60;99.90;;;;;;4997051;28;20053;-73
2023/07/01 08:42:09;;;;;;;0.47;0.40;;;19.70;99.90;;;;;;4994690;28;20490;-74
2023/07/01 08:44:37;;;;;;;0.73;0.40;;;19.70;99.90;;;;;;4966130;28;20200;-74
2023/07/01 08:47:04;;;;;;;0.77;0.35;;;19.80;99.90;;;;;;4995352;28;20129;-74
2023/07/01 08:49:31;;;;;;;0.40;0.40;;;19.80;99.90;;;;;;4980285;28;20061;-74
2023/07/01 08:52:04;;;;;;;0.52;0.40;;;19.80;99.90;;;;;;4983389;28;21081;-75
2023/07/01 08:54:33;;;;;;;0.63;0.40;;;19.80;99.90;;;;;;4952104;28;20398;-74
2023/07/01 08:57:00;;;;;;;0.20;0.17;;;19.80;99.90;;;;;;5000439;28;20076;-75
2023/07/01 08:59:27;;;;;;;0.20;0.20;;;19.90;99.90;;;;;;4984256;28;20041;-74
2023/07/01 09:01:56;;;;;;;0.35;0.30;;;20.10;99.90;;;;;;4965780;28;20108;-74
2023/07/01 09:04:23;;;;;;;0.22;0.20;;;20.20;99.90;;;;;;4971521;28;20057;-76
2023/07/01 09:06:49;;;;;;;0.32;0.30;;;20.30;99.90;;;;;;4959259;28;20422;-74
2023/07/01 09:09:16;;;;;;;0.20;0.20;;;20.30;99.90;;;;;;4972505;28;20867;-75
2023/07/01 09:11:43;;;;;;;1.00;0.20;;;20.30;99.90;;;;;;4993031;28;20049;-75
2023/07/01 09:14:10;;;;;;;0.20;0.20;;;20.20;99.90;;;;;;4984390;28;20116;-75
2023/07/01 09:16:37;;;;;;;1.45;0.40;;;20.30;99.90;;;;;;4989477;28;20556;-75
2023/07/01 09:19:04;;;;;;;0.60;0.40;;;20.40;99.90;;;;;;4975370;28;20121;-75
2023/07/01 09:21:32;;;;;;;0.20;0.20;;;20.40;99.90;;;;;;4986260;28;20128;-75
2023/07/01 09:24:00;;;;;;;0.32;0.32;;;20.60;99.90;;;;;;4985985;28;20546;-75
2023/07/01 09:26:30;;;;;;;0.30;0.28;;;20.70;99.90;;;;;;5001424;28;20585;-75
2023/07/01 09:28:57;;;;;;;0.30;0.30;;;20.70;99.90;;;;;;4995457;28;20424;-74
2023/07/01 09:31:25;;;;;;;0.47;0.30;;;20.80;99.90;;;;;;4994627;28;20073;-75
2023/07/01 09:34:00;;;;;;;0.55;0.30;;;20.80;99.90;;;;;;4997987;28;20034;-74
2023/07/01 09:36:29;;;;;;;0.32;0.32;;;21.00;99.90;;;;;;5008523;28;20107;-75
2023/07/01 09:38:56;;;;;;;0.20;0.20;;;21.10;99.90;;;;;;4983542;28;20045;-75
2023/07/01 09:41:25;;;;;;;0.68;0.30;;;21.10;99.90;;;;;;5000885;28;20082;-74
2023/07/01 09:43:55;;;;;;;0.47;0.40;;;20.90;99.90;;;;;;4997196;28;20038;-75
2023/07/01 09:46:22;;;;;;;0.30;0.30;;;20.80;99.90;;;;;;4977680;28;20559;-74
2023/07/01 09:48:51;;;;;;;0.93;0.50;;;20.70;99.90;;;;;;4999583;28;20500;-74
2023/07/01 09:51:18;;;;;;;0.88;0.50;;;20.70;99.90;;;;;;5000561;28;20050;-75
2023/07/01 09:53:45;;;;;;;0.30;0.30;;;20.90;99.90;;;;;;5000968;28;20050;-75
2023/07/01 09:56:14;;;;;;;0.40;0.40;;;21.00;99.90;;;;;;4994800;28;20080;-74
2023/07/01 09:58:40;;;;;;;1.52;0.50;;;21.00;99.90;;;;;;4954686;28;20095;-73
2023/07/01 10:01:07;;;;;;;0.75;0.50;;;21.00;99.90;;;;;;4978902;28;20398;-75
2023/07/01 10:03:35;;;;;;;1.20;0.60;;;20.80;99.90;;;;;;5000022;28;20160;-75
2023/07/01 10:06:01;;;;;;;0.50;0.47;;;20.80;99.90;;;;;;4979309;28;20207;-75
2023/07/01 10:08:29;;;;;;;0.50;0.45;;;20.80;99.90;;;;;;4999227;28;20054;-73
2023/07/01 10:11:10;;;;;;;0.30;0.30;;;20.70;99.90;;;;;;4965975;28;20086;-73
2023/07/01 10:13:48;;;;;;;0.60;0.50;;;20.80;99.90;;;;;;4999494;28;20058;-73
2023/07/01 10:16:15;;;;;;;1.00;0.60;;;20.70;99.90;;;;;;4967227;28;20058;-74
2023/07/01 10:18:42;;;;;;;0.63;0.40;;;20.40;99.90;;;;;;4983231;28;20049;-74
2023/07/01 10:21:24;;;;;;;0.65;0.50;;;20.30;99.90;;;;;;4993792;28;20050;-74
2023/07/01 10:23:51;;;;;;;0.40;0.40;;;20.20;99.90;;;;;;4995983;28;20061;-74
2023/07/01 10:26:39;;;;;;;0.77;0.40;;;20.10;99.90;;;;;;4988420;28;20053;-74
2023/07/01 10:29:28;;;;;;;0.30;0.30;;;20.20;99.90;;;;;;4974443;28;20042;-74
2023/07/01 10:32:13;;;;;;;0.40;0.40;;;20.40;99.90;;;;;;4991525;28;20549;-74
2023/07/01 10:34:55;;;;;;;0.55;0.47;;;20.60;99.90;;;;;;4972465;28;20551;-74
2023/07/01 10:37:23;;;;;;;1.10;0.60;;;20.60;99.90;;;;;;4996173;28;20050;-74
2023/07/01 10:39:50;;;;;;;1.00;0.80;;;20.60;99.90;;;;;;4951660;28;20053;-74
2023/07/01 10:42:34;;;;;;;0.98;0.77;;;20.70;99.90;;;;;;4983080;28;20057;-74
2023/07/01 10:45:10;;;;;;;1.75;0.50;;;20.80;99.90;;;;;;4984652;28;20096;-74
2023/07/01 10:47:37;;;;;;;0.40;0.40;;;20.90;99.90;;;;;;4996120;28;20153;-74
2023/07/01 10:50:05;;;;;;;0.43;0.43;;;21.10;99.90;;;;;;4982503;28;20058;-74
2023/07/01 10:52:33;;;;;;;0.50;0.40;;;21.40;99.90;;;;;;4967632;28;20258;-74
2023/07/01 10:55:00;;;;;;;1.65;0.88;;;21.60;99.90;;;;;;4985451;28;20784;-74
2023/07/01 10:57:28;;;;;;;0.57;0.47;;;21.70;99.90;;;;;;4969838;28;20041;-74
2023/07/01 11:00:32;;;;;;;0.85;0.60;;;21.90;99.90;;;;;;4999043;28;20079;-74
2023/07/01 11:02:59;;;;;;;0.85;0.73;;;21.90;99.90;;;;;;4989348;28;20060;-77
2023/07/01 11:05:29;;;;;;;1.35;1.00;;;21.90;99.90;;;;;;4971804;28;20160;-76
2023/07/01 11:08:06;;;;;;;0.98;0.73;;;21.90;99.90;;;;;;4981881;28;20481;-76
2023/07/01 11:10:34;;;;;;;1.17;0.80;;;22.10;99.90;;;;;;4967605;28;20050;-76
2023/07/01 11:13:03;;;;;;;0.60;0.60;;;22.30;99.90;;;;;;4969607;28;20054;-77
2023/07/01 11:15:30;;;;;;;0.98;0.70;;;22.30;99.90;;;;;;4975452;28;20057;-77
2023/07/01 11:17:58;;;;;;;1.15;0.90;;;22.50;99.90;;;;;;4957719;28;20095;-77
2023/07/01 11:20:24;;;;;;;1.38;1.00;;;22.60;99.90;;;;;;4946146;28;20058;-78
2023/07/01 11:22:51;;;;;;;1.10;0.80;;;22.70;99.90;;;;;;4981251;28;20053;-77
2023/07/01 11:25:18;;;;;;;1.38;0.77;;;22.50;99.90;;;;;;4976131;28;20683;-77
2023/07/01 11:27:45;;;;;;;0.80;0.70;;;22.30;99.90;;;;;;4980492;28;20069;-77
2023/07/01 11:30:28;;;;;;;2.30;1.25;;;22.00;99.90;;;;;;4998259;28;20132;-78
2023/07/01 11:32:55;;;;;;;2.25;1.05;;;21.70;99.90;;;;;;4977634;28;20061;-77
2023/07/01 11:35:22;;;;;;;1.35;0.90;;;21.70;99.90;;;;;;4981089;28;20613;-77
2023/07/01 11:37:48;;;;;;;0.93;0.80;;;21.70;99.90;;;;;;5000053;28;20049;-78
2023/07/01 11:40:15;;;;;;;1.42;1.10;;;21.70;99.90;;;;;;4989751;28;20058;-77
2023/07/01 11:42:42;;;;;;;1.15;0.90;;;21.80;99.90;;;;;;4951969;28;20103;-78
2023/07/01 11:45:10;;;;;;;1.58;0.93;;;22.00;99.90;;;;;;4965357;28;20073;-77
2023/07/01 11:47:44;;;;;;;0.60;0.55;;;22.20;99.90;;;;;;4982502;28;20527;-77
2023/07/01 11:50:11;;;;;;;0.63;0.60;;;22.40;99.90;;;;;;4967247;28;20204;-77
2023/07/01 11:52:38;;;;;;;0.60;0.57;;;22.50;99.90;;;;;;4983594;28;20339;-77
2023/07/01 11:55:05;;;;;;;0.80;0.60;;;22.70;99.90;;;;;;4973179;28;20116;-77
2023/07/01 11:57:32;;;;;;;1.48;0.70;;;22.90;99.90;;;;;;4973449;28;20042;-77
2023/07/01 12:00:01;;;;;;;0.75;0.50;;;22.90;99.90;;;;;;4963049;28;20751;-77
2023/07/01 12:02:28;;;;;;;0.73;0.50;;;23.00;99.90;;;;;;4960708;28;20792;-78
2023/07/01 12:04:56;;;;;;;0.70;0.50;;;23.50;99.90;;;;;;4963337;28;20054;-78
2023/07/01 12:07:22;;;;;;;0.43;0.40;;;24.00;99.90;;;;;;4964648;28;20056;-78
2023/07/01 12:09:50;;;;;;;0.73;0.63;;;24.00;99.90;;;;;;4967272;28;20046;-78
2023/07/01 12:12:32;;;;;;;1.25;0.98;;;23.50;99.90;;;;;;4980075;28;20056;-78
2023/07/01 12:15:07;;;;;;;0.43;0.40;;;23.10;99.90;;;;;;4982225;28;20119;-77
2023/07/01 12:17:34;;;;;;;2.22;0.70;;;22.90;99.90;;;;;;4964334;28;20311;-78
2023/07/01 12:20:03;;;;;;;0.80;0.60;;;22.90;99.90;;;;;;4984991;28;20049;-78
2023/07/01 12:22:30;;;;;;;1.83;0.90;;;22.90;99.90;;;;;;4978083;28;20052;-78
2023/07/01 12:24:58;;;;;;;0.98;0.70;;;22.80;99.90;;;;;;4962572;28;20046;-78
2023/07/01 12:27:29;;;;;;;1.00;0.88;;;22.90;99.90;;;;;;4973662;28;20212;-78
2023/07/01 12:29:56;;;;;;;0.88;0.60;;;22.90;99.90;;;;;;4980998;28;20057;-79
2023/07/01 12:32:24;;;;;;;1.15;0.70;;;23.10;99.90;;;;;;4984223;28;20046;-78
2023/07/01 12:34:52;;;;;;;1.77;0.73;;;23.40;99.90;;;;;;4995122;28;20046;-78
2023/07/01 12:37:19;;;;;;;1.77;1.13;;;23.60;99.90;;;;;;4982994;28;20431;-78
2023/07/01 12:39:46;;;;;;;1.02;0.85;;;24.20;99.90;;;;;;4982328;28;20552;-78
2023/07/01 12:42:13;;;;;;;1.13;0.98;;;24.50;99.90;;;;;;4985640;28;20045;-79
2023/07/01 12:44:43;;;;;;;1.00;0.88;;;24.80;99.90;;;;;;4980757;28;20046;-77
2023/07/01 12:47:09;;;;;;;1.10;0.70;;;25.50;99.10;;;;;;4983797;28;20082;-78
2023/07/01 12:49:39;;;;;;;0.77;0.60;;;25.70;97.70;;;;;;4961962;28;20050;-78
2023/07/01 12:52:06;;;;;;;1.20;0.93;;;25.40;97.10;;;;;;4995463;28;20053;-78
2023/07/01 12:54:33;;;;;;;0.90;0.75;;;25.00;97.90;;;;;;4986262;28;20501;-77